createdAt,value
2017-12-06T00:00:09.455Z,41.67
2017-12-06T00:00:41.910Z,41.57
2017-12-06T00:01:13.934Z,41.48
2017-12-06T00:01:45.949Z,41.57
2017-12-06T00:02:17.969Z,41.77
2017-12-06T00:02:49.966Z,41.77
2017-12-06T00:03:21.974Z,41.57
2017-12-06T00:03:54.001Z,41.77
2017-12-06T00:04:26.044Z,41.67
2017-12-06T00:04:58.074Z,41.67
2017-12-06T00:05:30.108Z,41.77
2017-12-06T00:06:02.145Z,41.57
2017-12-06T00:06:34.205Z,41.77
2017-12-06T00:07:06.224Z,41.67
2017-12-06T00:07:38.239Z,41.57
2017-12-06T00:08:10.311Z,41.38
2017-12-06T00:08:42.361Z,41.77
2017-12-06T00:09:14.367Z,41.38
2017-12-06T00:09:46.420Z,41.77
2017-12-06T00:10:18.395Z,41.48
2017-12-06T00:10:50.382Z,41.67
2017-12-06T00:11:22.424Z,41.77
2017-12-06T00:11:54.570Z,41.77
2017-12-06T00:12:26.599Z,41.67
2017-12-06T00:12:58.618Z,41.57
2017-12-06T00:13:30.623Z,41.77
2017-12-06T00:14:02.632Z,41.67
2017-12-06T00:14:34.666Z,41.67
2017-12-06T00:15:06.665Z,41.77
2017-12-06T00:15:38.679Z,41.67
2017-12-06T00:16:10.696Z,41.77
2017-12-06T00:16:43.501Z,41.57
2017-12-06T00:17:15.520Z,41.77
2017-12-06T00:17:47.492Z,41.48
2017-12-06T00:18:19.532Z,41.67
2017-12-06T00:18:51.504Z,41.57
2017-12-06T00:19:23.479Z,41.57
2017-12-06T00:19:55.589Z,41.67
2017-12-06T00:20:27.701Z,41.77
2017-12-06T00:20:59.753Z,41.86
2017-12-06T00:21:31.821Z,41.48
2017-12-06T00:22:03.822Z,41.57
2017-12-06T00:22:35.955Z,41.57
2017-12-06T00:23:07.968Z,41.77
2017-12-06T00:23:40.042Z,41.77
2017-12-06T00:24:12.060Z,41.67
2017-12-06T00:24:44.086Z,41.38
2017-12-06T00:25:16.130Z,41.77
2017-12-06T00:25:48.135Z,41.67
2017-12-06T00:26:20.192Z,41.57
2017-12-06T00:26:52.248Z,41.77
2017-12-06T00:27:24.289Z,41.38
2017-12-06T00:27:56.294Z,41.57
2017-12-06T00:28:28.319Z,41.67
2017-12-06T00:29:00.325Z,41.77
2017-12-06T00:29:32.329Z,41.38
2017-12-06T00:30:04.300Z,41.57
2017-12-06T00:30:36.302Z,41.38
2017-12-06T00:31:08.313Z,41.38
2017-12-06T00:31:40.321Z,41.48
2017-12-06T00:32:12.345Z,41.38
2017-12-06T00:32:44.457Z,41.67
2017-12-06T00:33:16.468Z,41.38
2017-12-06T00:33:48.478Z,41.38
2017-12-06T00:34:20.489Z,41.38
2017-12-06T00:34:52.499Z,41.67
2017-12-06T00:35:24.475Z,41.67
2017-12-06T00:35:56.525Z,41.38
2017-12-06T00:36:28.520Z,41.38
2017-12-06T00:37:00.500Z,41.67
2017-12-06T00:37:32.559Z,41.38
2017-12-06T00:38:04.580Z,41.38
2017-12-06T00:38:36.590Z,41.38
2017-12-06T00:39:08.591Z,41.38
2017-12-06T00:39:40.618Z,41.67
2017-12-06T00:40:12.603Z,41.67
2017-12-06T00:40:44.598Z,41.38
2017-12-06T00:41:16.608Z,41.67
2017-12-06T00:41:48.701Z,41.38
2017-12-06T00:42:20.717Z,41.67
2017-12-06T00:42:52.738Z,41.57
2017-12-06T00:43:24.699Z,41.67
2017-12-06T00:43:56.728Z,41.67
2017-12-06T00:44:28.757Z,41.57
2017-12-06T00:45:00.728Z,41.67
2017-12-06T00:45:32.778Z,41.67
2017-12-06T00:46:04.786Z,41.38
2017-12-06T00:46:36.811Z,41.28
2017-12-06T00:47:08.809Z,41.38
2017-12-06T00:47:40.834Z,41.28
2017-12-06T00:48:12.858Z,41.67
2017-12-06T00:48:44.865Z,41.57
2017-12-06T00:49:16.877Z,41.38
2017-12-06T00:49:49.446Z,41.67
2017-12-06T00:50:21.459Z,41.38
2017-12-06T00:50:53.414Z,41.48
2017-12-06T00:51:25.432Z,41.28
2017-12-06T00:51:57.474Z,41.77
2017-12-06T00:52:29.474Z,41.57
2017-12-06T00:53:01.452Z,41.57
2017-12-06T00:53:33.492Z,41.38
2017-12-06T00:54:05.508Z,41.28
2017-12-06T00:54:37.575Z,41.57
2017-12-06T00:55:09.566Z,41.38
2017-12-06T00:55:41.629Z,41.38
2017-12-06T00:56:13.675Z,41.57
2017-12-06T00:56:45.675Z,41.38
2017-12-06T00:57:18.359Z,41.67
2017-12-06T00:57:50.399Z,41.57
2017-12-06T00:58:22.416Z,41.48
2017-12-06T00:58:54.396Z,41.38
2017-12-06T00:59:26.429Z,41.38
2017-12-06T00:59:59.135Z,41.67
2017-12-06T01:00:31.118Z,41.38
2017-12-06T01:01:03.156Z,41.38
2017-12-06T01:01:35.251Z,41.38
2017-12-06T01:02:07.261Z,41.57
2017-12-06T01:02:39.273Z,41.67
2017-12-06T01:03:11.282Z,41.38
2017-12-06T01:03:43.286Z,41.57
2017-12-06T01:04:15.297Z,41.28
2017-12-06T01:04:47.344Z,41.38
2017-12-06T01:05:19.290Z,41.28
2017-12-06T01:05:51.312Z,41.38
2017-12-06T01:06:23.317Z,41.38
2017-12-06T01:06:55.364Z,41.67
2017-12-06T01:07:27.413Z,41.48
2017-12-06T01:07:59.444Z,41.38
2017-12-06T01:08:31.475Z,41.57
2017-12-06T01:09:03.477Z,41.57
2017-12-06T01:09:35.494Z,41.28
2017-12-06T01:10:07.526Z,41.48
2017-12-06T01:10:39.520Z,41.57
2017-12-06T01:11:11.544Z,41.28
2017-12-06T01:11:44.448Z,41.57
2017-12-06T01:12:16.482Z,41.48
2017-12-06T01:12:48.566Z,41.28
2017-12-06T01:13:20.566Z,41.38
2017-12-06T01:13:52.592Z,41.38
2017-12-06T01:14:24.552Z,41.48
2017-12-06T01:14:56.553Z,41.38
2017-12-06T01:15:28.516Z,41.38
2017-12-06T01:16:00.543Z,41.77
2017-12-06T01:16:32.538Z,41.48
2017-12-06T01:17:04.530Z,41.48
2017-12-06T01:17:36.538Z,41.57
2017-12-06T01:18:08.556Z,41.48
2017-12-06T01:18:40.545Z,41.57
2017-12-06T01:19:12.558Z,41.38
2017-12-06T01:19:44.561Z,41.38
2017-12-06T01:20:16.525Z,41.38
2017-12-06T01:20:48.556Z,41.38
2017-12-06T01:21:20.607Z,41.38
2017-12-06T01:21:52.600Z,41.38
2017-12-06T01:22:24.594Z,41.38
2017-12-06T01:22:56.648Z,41.38
2017-12-06T01:23:28.684Z,41.48
2017-12-06T01:24:00.666Z,41.38
2017-12-06T01:24:32.807Z,41.38
2017-12-06T01:25:04.801Z,41.67
2017-12-06T01:25:36.802Z,41.38
2017-12-06T01:26:08.861Z,41.48
2017-12-06T01:26:40.840Z,41.38
2017-12-06T01:27:12.854Z,41.28
2017-12-06T01:27:44.913Z,41.28
2017-12-06T01:28:16.870Z,41.67
2017-12-06T01:28:48.851Z,41.38
2017-12-06T01:29:20.873Z,41.38
2017-12-06T01:29:52.883Z,41.38
2017-12-06T01:30:24.937Z,41.38
2017-12-06T01:30:56.938Z,41.38
2017-12-06T01:31:28.985Z,41.38
2017-12-06T01:32:00.973Z,41.38
2017-12-06T01:32:33.009Z,41.67
2017-12-06T01:33:05.031Z,41.38
2017-12-06T01:33:37.010Z,41.38
2017-12-06T01:34:09.018Z,41.38
2017-12-06T01:34:41.011Z,41.28
2017-12-06T01:35:13.052Z,41.38
2017-12-06T01:35:45.099Z,41.57
2017-12-06T01:36:17.090Z,41.48
2017-12-06T01:36:49.109Z,41.38
2017-12-06T01:37:21.098Z,41.57
2017-12-06T01:37:53.124Z,41.38
2017-12-06T01:38:25.130Z,41.77
2017-12-06T01:38:57.122Z,41.48
2017-12-06T01:39:29.123Z,41.38
2017-12-06T01:40:01.108Z,41.38
2017-12-06T01:40:33.099Z,41.48
2017-12-06T01:41:05.259Z,41.28
2017-12-06T01:41:37.257Z,41.28
2017-12-06T01:42:09.255Z,41.57
2017-12-06T01:42:41.242Z,41.57
2017-12-06T01:43:13.230Z,41.48
2017-12-06T01:43:45.248Z,41.48
2017-12-06T01:44:17.285Z,41.19
2017-12-06T01:44:49.964Z,41.38
2017-12-06T01:45:21.976Z,41.38
2017-12-06T01:45:53.971Z,41.48
2017-12-06T01:46:25.989Z,41.38
2017-12-06T01:46:58.005Z,41.28
2017-12-06T01:47:29.993Z,41.38
2017-12-06T01:48:01.966Z,41.38
2017-12-06T01:48:33.977Z,41.38
2017-12-06T01:49:05.975Z,41.38
2017-12-06T01:49:38.098Z,41.28
2017-12-06T01:50:10.067Z,41.48
2017-12-06T01:50:42.111Z,41.57
2017-12-06T01:51:14.219Z,41.57
2017-12-06T01:51:46.252Z,41.57
2017-12-06T01:52:18.240Z,41.48
2017-12-06T01:52:50.195Z,41.38
2017-12-06T01:53:22.198Z,41.19
2017-12-06T01:53:54.205Z,41.38
2017-12-06T01:54:26.186Z,41.19
2017-12-06T01:54:58.216Z,41.38
2017-12-06T01:55:30.235Z,41.48
2017-12-06T01:56:02.349Z,41.38
2017-12-06T01:56:34.346Z,41.57
2017-12-06T01:57:06.404Z,41.28
2017-12-06T01:57:38.441Z,41.19
2017-12-06T01:58:10.446Z,41.28
2017-12-06T01:58:42.442Z,41.48
2017-12-06T01:59:14.463Z,41.38
2017-12-06T01:59:46.502Z,41.48
2017-12-06T02:00:18.528Z,41.28
2017-12-06T02:00:51.082Z,41.48
2017-12-06T02:01:23.210Z,41.48
2017-12-06T02:01:55.189Z,41.48
2017-12-06T02:02:27.203Z,41.28
2017-12-06T02:02:59.197Z,41.48
2017-12-06T02:03:31.243Z,41.48
2017-12-06T02:04:03.253Z,41.38
2017-12-06T02:04:35.347Z,41.38
2017-12-06T02:05:07.368Z,41.48
2017-12-06T02:05:39.350Z,41.27
2017-12-06T02:06:11.350Z,41.28
2017-12-06T02:06:43.367Z,41.28
2017-12-06T02:07:15.377Z,41.28
2017-12-06T02:07:47.486Z,41.48
2017-12-06T02:08:19.524Z,41.38
2017-12-06T02:08:51.523Z,41.28
2017-12-06T02:09:23.494Z,41.19
2017-12-06T02:09:55.524Z,41.48
2017-12-06T02:10:27.497Z,41.38
2017-12-06T02:10:59.510Z,41.28
2017-12-06T02:11:31.520Z,41.19
2017-12-06T02:12:03.550Z,41.38
2017-12-06T02:12:35.642Z,41.28
2017-12-06T02:13:07.656Z,41.28
2017-12-06T02:13:39.678Z,41.28
2017-12-06T02:14:11.700Z,41.28
2017-12-06T02:14:43.690Z,41.19
2017-12-06T02:15:15.726Z,41.28
2017-12-06T02:15:47.712Z,41.48
2017-12-06T02:16:19.781Z,41.28
2017-12-06T02:16:51.811Z,41.28
2017-12-06T02:17:23.828Z,41.19
2017-12-06T02:17:55.800Z,41.38
2017-12-06T02:18:27.927Z,41.48
2017-12-06T02:18:59.931Z,41.19
2017-12-06T02:19:31.915Z,41.38
2017-12-06T02:20:03.941Z,41.57
2017-12-06T02:20:36.080Z,41.28
2017-12-06T02:21:08.074Z,41.28
2017-12-06T02:21:40.099Z,41.28
2017-12-06T02:22:12.179Z,41.28
2017-12-06T02:22:44.184Z,41.38
2017-12-06T02:23:16.239Z,41.38
2017-12-06T02:23:48.262Z,41.38
2017-12-06T02:24:20.383Z,41.38
2017-12-06T02:24:52.356Z,41.38
2017-12-06T02:25:24.359Z,41.28
2017-12-06T02:25:56.351Z,41.28
2017-12-06T02:26:28.343Z,41.19
2017-12-06T02:27:00.359Z,41.48
2017-12-06T02:27:32.400Z,41.28
2017-12-06T02:28:04.422Z,41.19
2017-12-06T02:28:36.450Z,41.28
2017-12-06T02:29:08.602Z,41.19
2017-12-06T02:29:40.608Z,41.48
2017-12-06T02:30:12.640Z,41.19
2017-12-06T02:30:44.659Z,41.19
2017-12-06T02:31:16.701Z,41.38
2017-12-06T02:31:48.702Z,41.38
2017-12-06T02:32:21.576Z,41.19
2017-12-06T02:32:53.603Z,41.19
2017-12-06T02:33:25.746Z,41.19
2017-12-06T02:33:57.828Z,41.28
2017-12-06T02:34:29.868Z,41.38
2017-12-06T02:35:01.926Z,41.28
2017-12-06T02:35:33.935Z,41.28
2017-12-06T02:36:06.079Z,41.38
2017-12-06T02:36:38.078Z,41.19
2017-12-06T02:37:10.107Z,41.19
2017-12-06T02:37:42.133Z,41.19
2017-12-06T02:38:14.189Z,41.28
2017-12-06T02:38:46.172Z,41.19
2017-12-06T02:39:18.190Z,41.38
2017-12-06T02:39:50.229Z,41.28
2017-12-06T02:40:22.242Z,41.28
2017-12-06T02:40:54.271Z,41.28
2017-12-06T02:41:26.418Z,41.19
2017-12-06T02:41:58.446Z,41.28
2017-12-06T02:42:30.436Z,41.38
2017-12-06T02:43:02.465Z,41.28
2017-12-06T02:43:34.463Z,41.19
2017-12-06T02:44:06.479Z,41.19
2017-12-06T02:44:38.580Z,41.28
2017-12-06T02:45:10.676Z,40.99
2017-12-06T02:45:42.699Z,41.19
2017-12-06T02:46:14.712Z,41.19
2017-12-06T02:46:46.705Z,41.28
2017-12-06T02:47:18.721Z,41.09
2017-12-06T02:47:50.702Z,41.28
2017-12-06T02:48:22.778Z,41.28
2017-12-06T02:48:54.762Z,41.19
2017-12-06T02:49:26.770Z,41.28
2017-12-06T02:49:58.773Z,41.28
2017-12-06T02:50:30.798Z,41.19
2017-12-06T02:51:02.838Z,41.28
2017-12-06T02:51:34.834Z,41.19
2017-12-06T02:52:06.850Z,41.09
2017-12-06T02:52:38.962Z,41.19
2017-12-06T02:53:10.978Z,41.19
2017-12-06T02:53:43.001Z,41.28
2017-12-06T02:54:15.043Z,40.99
2017-12-06T02:54:47.503Z,41.19
2017-12-06T02:55:19.559Z,41.19
2017-12-06T02:55:52.420Z,41.28
2017-12-06T02:56:24.473Z,41.09
2017-12-06T02:56:56.497Z,40.99
2017-12-06T02:57:28.547Z,41.28
2017-12-06T02:58:00.564Z,41.09
2017-12-06T02:58:32.548Z,41.38
2017-12-06T02:59:04.564Z,41.09
2017-12-06T02:59:36.580Z,41.28
2017-12-06T03:00:08.624Z,41.19
2017-12-06T03:00:40.819Z,41.28
2017-12-06T03:01:12.835Z,41.28
2017-12-06T03:01:44.864Z,41.28
2017-12-06T03:02:16.894Z,41.28
2017-12-06T03:02:48.898Z,41.28
2017-12-06T03:03:20.915Z,41.19
2017-12-06T03:03:52.947Z,41.19
2017-12-06T03:04:25.061Z,41.28
2017-12-06T03:04:57.116Z,41.19
2017-12-06T03:05:29.162Z,41.28
2017-12-06T03:06:01.281Z,41.19
2017-12-06T03:06:33.303Z,41.19
2017-12-06T03:07:06.004Z,41.28
2017-12-06T03:07:38.052Z,41.19
2017-12-06T03:08:10.046Z,41.19
2017-12-06T03:08:42.024Z,40.99
2017-12-06T03:09:14.065Z,40.99
2017-12-06T03:09:46.082Z,41.19
2017-12-06T03:10:18.149Z,41.19
2017-12-06T03:10:50.148Z,41.28
2017-12-06T03:11:22.233Z,41.28
2017-12-06T03:11:54.246Z,41.09
2017-12-06T03:12:26.257Z,41.28
2017-12-06T03:12:58.301Z,41.09
2017-12-06T03:13:30.334Z,40.99
2017-12-06T03:14:03.097Z,41.28
2017-12-06T03:14:35.209Z,41.19
2017-12-06T03:15:07.274Z,41.19
2017-12-06T03:15:39.281Z,40.99
2017-12-06T03:16:11.312Z,41.09
2017-12-06T03:16:43.344Z,41.09
2017-12-06T03:17:15.338Z,40.99
2017-12-06T03:17:47.370Z,41.09
2017-12-06T03:18:19.397Z,41.38
2017-12-06T03:18:51.395Z,41.09
2017-12-06T03:19:23.410Z,41.09
2017-12-06T03:19:56.323Z,40.99
2017-12-06T03:20:28.339Z,41.09
2017-12-06T03:21:00.319Z,40.99
2017-12-06T03:21:32.401Z,40.99
2017-12-06T03:22:04.389Z,41.09
2017-12-06T03:22:36.461Z,41.38
2017-12-06T03:23:08.511Z,41.48
2017-12-06T03:23:40.549Z,41.48
2017-12-06T03:24:12.567Z,41.09
2017-12-06T03:24:44.586Z,41.19
2017-12-06T03:25:16.564Z,41.09
2017-12-06T03:25:48.612Z,41.09
2017-12-06T03:26:20.623Z,41.28
2017-12-06T03:26:52.660Z,41.38
2017-12-06T03:27:24.652Z,41.09
2017-12-06T03:27:56.705Z,41.09
2017-12-06T03:28:28.726Z,40.99
2017-12-06T03:29:00.734Z,41.09
2017-12-06T03:29:32.763Z,41.28
2017-12-06T03:30:04.786Z,40.99
2017-12-06T03:30:36.800Z,41.48
2017-12-06T03:31:08.919Z,40.9
2017-12-06T03:31:40.894Z,41.28
2017-12-06T03:32:12.914Z,41.19
2017-12-06T03:32:44.940Z,41.09
2017-12-06T03:33:16.982Z,41.48
2017-12-06T03:33:49.004Z,41.28
2017-12-06T03:34:21.022Z,41.28
2017-12-06T03:34:52.997Z,41.28
2017-12-06T03:35:25.032Z,41.27
2017-12-06T03:35:57.078Z,41.38
2017-12-06T03:36:29.091Z,41.09
2017-12-06T03:37:01.094Z,40.99
2017-12-06T03:37:33.112Z,41.09
2017-12-06T03:38:05.090Z,41.28
2017-12-06T03:38:37.101Z,41.19
2017-12-06T03:39:09.113Z,41.38
2017-12-06T03:39:41.087Z,41.38
2017-12-06T03:40:13.170Z,41.19
2017-12-06T03:40:45.206Z,41.19
2017-12-06T03:41:17.237Z,41.09
2017-12-06T03:41:49.207Z,41.09
2017-12-06T03:42:21.198Z,41.09
2017-12-06T03:42:53.257Z,41.48
2017-12-06T03:43:25.947Z,41.09
2017-12-06T03:43:57.966Z,41.19
2017-12-06T03:44:29.955Z,41.28
2017-12-06T03:45:02.020Z,41.28
2017-12-06T03:45:34.032Z,41.28
2017-12-06T03:46:06.079Z,41.38
2017-12-06T03:46:38.083Z,41.28
2017-12-06T03:47:10.157Z,41.38
2017-12-06T03:47:42.151Z,41.28
2017-12-06T03:48:14.173Z,41.28
2017-12-06T03:48:46.193Z,41.38
2017-12-06T03:49:18.340Z,40.99
2017-12-06T03:49:50.395Z,41.38
2017-12-06T03:50:22.413Z,41.09
2017-12-06T03:50:54.465Z,41.38
2017-12-06T03:51:26.461Z,41.28
2017-12-06T03:51:58.514Z,41.28
2017-12-06T03:52:30.462Z,41.28
2017-12-06T03:53:02.488Z,41.38
2017-12-06T03:53:34.490Z,41.38
2017-12-06T03:54:06.517Z,41.28
2017-12-06T03:54:38.537Z,41.19
2017-12-06T03:55:10.588Z,41.28
2017-12-06T03:55:42.616Z,41.38
2017-12-06T03:56:14.731Z,41.19
2017-12-06T03:56:46.767Z,41.19
2017-12-06T03:57:18.748Z,41.19
2017-12-06T03:57:50.763Z,41.38
2017-12-06T03:58:22.771Z,41.19
2017-12-06T03:58:54.747Z,41.09
2017-12-06T03:59:27.542Z,41.19
2017-12-06T04:00:00.358Z,41.19
2017-12-06T04:00:32.342Z,41.38
2017-12-06T04:01:04.353Z,41.28
2017-12-06T04:01:36.354Z,41.19
2017-12-06T04:02:08.362Z,40.9
2017-12-06T04:02:40.365Z,41.38
2017-12-06T04:03:12.369Z,41.09
2017-12-06T04:03:44.337Z,40.99
2017-12-06T04:04:16.390Z,41.28
2017-12-06T04:04:48.404Z,40.99
2017-12-06T04:05:20.566Z,41.19
2017-12-06T04:05:52.561Z,41.09
2017-12-06T04:06:24.560Z,40.9
2017-12-06T04:06:56.560Z,41.09
2017-12-06T04:07:28.599Z,41.09
2017-12-06T04:08:00.630Z,41.48
2017-12-06T04:08:32.639Z,41.09
2017-12-06T04:09:04.656Z,41.28
2017-12-06T04:09:36.643Z,41.28
2017-12-06T04:10:08.636Z,41.38
2017-12-06T04:10:40.660Z,40.9
2017-12-06T04:11:12.677Z,40.8
2017-12-06T04:11:44.741Z,40.9
2017-12-06T04:12:16.787Z,40.9
2017-12-06T04:12:48.795Z,40.9
2017-12-06T04:13:20.806Z,41.28
2017-12-06T04:13:52.822Z,41.28
2017-12-06T04:14:24.851Z,41.38
2017-12-06T04:14:56.877Z,41.27
2017-12-06T04:15:28.868Z,40.99
2017-12-06T04:16:00.858Z,41.28
2017-12-06T04:16:32.879Z,40.9
2017-12-06T04:17:04.894Z,40.99
2017-12-06T04:17:36.876Z,40.9
2017-12-06T04:18:08.894Z,41.09
2017-12-06T04:18:40.926Z,40.9
2017-12-06T04:19:13.457Z,41.48
2017-12-06T04:19:45.577Z,40.97
2017-12-06T04:20:17.595Z,40.9
2017-12-06T04:20:49.613Z,41.09
2017-12-06T04:21:21.622Z,41.38
2017-12-06T04:21:53.621Z,41.46
2017-12-06T04:22:25.617Z,40.8
2017-12-06T04:22:57.634Z,40.88
2017-12-06T04:23:29.624Z,41.38
2017-12-06T04:24:01.619Z,40.99
2017-12-06T04:24:34.057Z,40.8
2017-12-06T04:25:06.102Z,40.88
2017-12-06T04:25:38.739Z,41.38
2017-12-06T04:26:10.771Z,40.88
2017-12-06T04:26:42.820Z,41.36
2017-12-06T04:27:14.806Z,40.9
2017-12-06T04:27:46.827Z,40.99
2017-12-06T04:28:18.836Z,40.9
2017-12-06T04:28:50.857Z,40.8
2017-12-06T04:29:22.883Z,40.88
2017-12-06T04:29:54.912Z,40.8
2017-12-06T04:30:26.890Z,40.9
2017-12-06T04:30:58.913Z,40.9
2017-12-06T04:31:30.948Z,41.36
2017-12-06T04:32:02.972Z,40.9
2017-12-06T04:32:34.956Z,40.69
2017-12-06T04:33:06.990Z,40.8
2017-12-06T04:33:38.956Z,40.9
2017-12-06T04:34:11.094Z,40.7
2017-12-06T04:34:43.096Z,40.9
2017-12-06T04:35:15.123Z,40.88
2017-12-06T04:35:47.143Z,41.28
2017-12-06T04:36:19.179Z,40.9
2017-12-06T04:36:51.211Z,40.9
2017-12-06T04:37:23.210Z,41.36
2017-12-06T04:37:55.220Z,41.57
2017-12-06T04:38:27.230Z,41.57
2017-12-06T04:38:59.253Z,40.78
2017-12-06T04:39:31.270Z,41.67
2017-12-06T04:40:03.286Z,40.7
2017-12-06T04:40:35.364Z,40.78
2017-12-06T04:41:07.310Z,40.8
2017-12-06T04:41:39.361Z,40.7
2017-12-06T04:42:11.398Z,40.9
2017-12-06T04:42:43.404Z,40.9
2017-12-06T04:43:15.528Z,40.8
2017-12-06T04:43:47.546Z,40.9
2017-12-06T04:44:19.594Z,40.9
2017-12-06T04:44:51.624Z,40.69
2017-12-06T04:45:23.641Z,41.46
2017-12-06T04:45:55.672Z,41.48
2017-12-06T04:46:27.698Z,40.78
2017-12-06T04:46:59.737Z,40.7
2017-12-06T04:47:31.823Z,40.9
2017-12-06T04:48:03.838Z,40.69
2017-12-06T04:48:35.805Z,40.9
2017-12-06T04:49:07.843Z,40.78
2017-12-06T04:49:39.865Z,40.9
2017-12-06T04:50:11.991Z,41.57
2017-12-06T04:50:44.006Z,41.48
2017-12-06T04:51:16.062Z,40.9
2017-12-06T04:51:48.094Z,40.78
2017-12-06T04:52:20.109Z,40.88
2017-12-06T04:52:52.110Z,40.8
2017-12-06T04:53:24.147Z,40.8
2017-12-06T04:53:56.165Z,41.57
2017-12-06T04:54:28.259Z,40.9
2017-12-06T04:55:00.223Z,41.38
2017-12-06T04:55:32.281Z,40.69
2017-12-06T04:56:04.369Z,40.88
2017-12-06T04:56:36.376Z,40.69
2017-12-06T04:57:08.402Z,40.8
2017-12-06T04:57:40.476Z,41.36
2017-12-06T04:58:12.625Z,40.9
2017-12-06T04:58:44.638Z,40.8
2017-12-06T04:59:16.667Z,40.7
2017-12-06T04:59:48.729Z,40.9
2017-12-06T05:00:20.720Z,41.38
2017-12-06T05:00:52.697Z,40.78
2017-12-06T05:01:24.705Z,40.8
2017-12-06T05:01:56.687Z,40.88
2017-12-06T05:02:28.741Z,40.9
2017-12-06T05:03:00.774Z,40.8
2017-12-06T05:03:32.787Z,40.78
2017-12-06T05:04:04.812Z,40.9
2017-12-06T05:04:36.801Z,41.46
2017-12-06T05:05:08.802Z,40.88
2017-12-06T05:05:40.826Z,40.69
2017-12-06T05:06:12.831Z,41.48
2017-12-06T05:06:44.865Z,40.88
2017-12-06T05:07:16.917Z,40.88
2017-12-06T05:07:48.964Z,40.88
2017-12-06T05:08:20.966Z,40.69
2017-12-06T05:08:52.975Z,40.88
2017-12-06T05:09:24.988Z,40.88
2017-12-06T05:09:56.975Z,40.9
2017-12-06T05:10:28.975Z,40.88
2017-12-06T05:11:01.003Z,40.9
2017-12-06T05:11:33.014Z,40.78
2017-12-06T05:12:05.122Z,40.88
2017-12-06T05:12:37.142Z,41.38
2017-12-06T05:13:09.165Z,41.36
2017-12-06T05:13:41.220Z,40.88
2017-12-06T05:14:13.262Z,40.88
2017-12-06T05:14:45.309Z,41.36
2017-12-06T05:15:17.323Z,41.57
2017-12-06T05:15:49.308Z,40.88
2017-12-06T05:16:21.289Z,40.88
2017-12-06T05:16:53.306Z,40.88
2017-12-06T05:17:25.323Z,40.78
2017-12-06T05:17:57.354Z,40.88
2017-12-06T05:18:29.374Z,40.88
2017-12-06T05:19:01.326Z,40.9
2017-12-06T05:19:33.371Z,40.9
2017-12-06T05:20:05.390Z,41.36
2017-12-06T05:20:37.425Z,40.88
2017-12-06T05:21:09.464Z,40.8
2017-12-06T05:21:41.580Z,40.88
2017-12-06T05:22:13.647Z,40.69
2017-12-06T05:22:45.693Z,40.97
2017-12-06T05:23:17.720Z,40.88
2017-12-06T05:23:49.729Z,40.97
2017-12-06T05:24:21.714Z,40.88
2017-12-06T05:24:53.735Z,40.88
2017-12-06T05:25:26.414Z,40.78
2017-12-06T05:25:58.456Z,40.88
2017-12-06T05:26:30.433Z,40.88
2017-12-06T05:27:02.444Z,40.88
2017-12-06T05:27:35.168Z,40.78
2017-12-06T05:28:07.267Z,40.88
2017-12-06T05:28:39.372Z,40.88
2017-12-06T05:29:11.372Z,40.88
2017-12-06T05:29:43.358Z,40.9
2017-12-06T05:30:15.381Z,40.78
2017-12-06T05:30:47.398Z,40.88
2017-12-06T05:31:19.457Z,41.55
2017-12-06T05:31:51.469Z,40.88
2017-12-06T05:32:23.473Z,40.88
2017-12-06T05:32:55.447Z,41.36
2017-12-06T05:33:27.462Z,40.88
2017-12-06T05:33:59.457Z,40.78
2017-12-06T05:34:31.472Z,40.88
2017-12-06T05:35:03.459Z,40.88
2017-12-06T05:35:35.472Z,40.9
2017-12-06T05:36:07.492Z,40.8
2017-12-06T05:36:39.547Z,40.88
2017-12-06T05:37:11.596Z,40.88
2017-12-06T05:37:43.607Z,40.88
2017-12-06T05:38:15.635Z,40.9
2017-12-06T05:38:47.591Z,40.88
2017-12-06T05:39:19.556Z,41.36
2017-12-06T05:39:51.551Z,40.8
2017-12-06T05:40:23.578Z,40.88
2017-12-06T05:40:55.603Z,40.88
2017-12-06T05:41:27.634Z,41.36
2017-12-06T05:41:59.656Z,40.88
2017-12-06T05:42:31.666Z,41.55
2017-12-06T05:43:03.673Z,41.46
2017-12-06T05:43:35.687Z,40.88
2017-12-06T05:44:07.748Z,40.88
2017-12-06T05:44:39.723Z,40.88
2017-12-06T05:45:11.904Z,40.69
2017-12-06T05:45:44.377Z,40.78
2017-12-06T05:46:16.404Z,41.36
2017-12-06T05:46:48.403Z,40.78
2017-12-06T05:47:20.384Z,40.88
2017-12-06T05:47:52.394Z,41.55
2017-12-06T05:48:24.420Z,41.36
2017-12-06T05:48:56.509Z,41.36
2017-12-06T05:49:28.551Z,40.88
2017-12-06T05:50:00.603Z,40.88
2017-12-06T05:50:32.623Z,40.88
2017-12-06T05:51:04.659Z,40.88
2017-12-06T05:51:36.684Z,40.88
2017-12-06T05:52:08.724Z,40.8
2017-12-06T05:52:41.603Z,40.88
2017-12-06T05:53:13.658Z,40.88
2017-12-06T05:53:45.688Z,40.88
2017-12-06T05:54:17.695Z,40.88
2017-12-06T05:54:49.752Z,40.97
2017-12-06T05:55:21.749Z,40.88
2017-12-06T05:55:53.716Z,40.88
2017-12-06T05:56:26.510Z,40.9
2017-12-06T05:56:58.479Z,40.88
2017-12-06T05:57:30.521Z,40.78
2017-12-06T05:58:02.539Z,40.88
2017-12-06T05:58:34.531Z,40.97
2017-12-06T05:59:06.527Z,40.88
2017-12-06T05:59:38.523Z,40.97
2017-12-06T06:00:10.537Z,40.97
2017-12-06T06:00:42.492Z,40.88
2017-12-06T06:01:14.513Z,40.88
2017-12-06T06:01:47.210Z,41.57
2017-12-06T06:02:19.263Z,40.88
2017-12-06T06:02:51.408Z,40.88
2017-12-06T06:03:23.419Z,40.97
2017-12-06T06:03:55.412Z,40.97
2017-12-06T06:04:27.427Z,40.9
2017-12-06T06:04:59.443Z,41.38
2017-12-06T06:05:31.467Z,40.88
2017-12-06T06:06:04.118Z,40.78
2017-12-06T06:06:36.129Z,40.88
2017-12-06T06:07:08.150Z,41.55
2017-12-06T06:07:40.193Z,40.97
2017-12-06T06:08:12.180Z,41.46
2017-12-06T06:08:44.184Z,41.57
2017-12-06T06:09:16.261Z,40.97
2017-12-06T06:09:48.359Z,40.97
2017-12-06T06:10:20.361Z,40.97
2017-12-06T06:10:52.391Z,40.88
2017-12-06T06:11:24.418Z,41.46
2017-12-06T06:11:56.423Z,40.97
2017-12-06T06:12:28.425Z,41.07
2017-12-06T06:13:00.403Z,40.97
2017-12-06T06:13:32.376Z,40.9
2017-12-06T06:14:04.400Z,40.88
2017-12-06T06:14:36.558Z,41.46
2017-12-06T06:15:08.575Z,40.97
2017-12-06T06:15:40.596Z,40.88
2017-12-06T06:16:12.708Z,40.88
2017-12-06T06:16:44.737Z,40.97
2017-12-06T06:17:16.714Z,40.88
2017-12-06T06:17:48.760Z,40.78
2017-12-06T06:18:20.750Z,41.46
2017-12-06T06:18:52.795Z,40.88
2017-12-06T06:19:24.835Z,40.88
2017-12-06T06:19:56.808Z,41.36
2017-12-06T06:20:28.824Z,41.46
2017-12-06T06:21:00.808Z,40.88
2017-12-06T06:21:32.796Z,40.88
2017-12-06T06:22:04.833Z,40.88
2017-12-06T06:22:36.861Z,40.88
2017-12-06T06:23:08.941Z,41.17
2017-12-06T06:23:41.038Z,41.07
2017-12-06T06:24:13.128Z,40.88
2017-12-06T06:24:45.156Z,41.48
2017-12-06T06:25:17.189Z,41.07
2017-12-06T06:25:49.201Z,41.36
2017-12-06T06:26:21.251Z,41.48
2017-12-06T06:26:53.250Z,40.97
2017-12-06T06:27:25.247Z,40.88
2017-12-06T06:27:57.334Z,41.46
2017-12-06T06:28:29.460Z,40.97
2017-12-06T06:29:01.459Z,40.9
2017-12-06T06:29:33.474Z,41.46
2017-12-06T06:30:05.432Z,40.9
2017-12-06T06:30:37.538Z,40.88
2017-12-06T06:31:09.717Z,40.88
2017-12-06T06:31:41.752Z,41.46
2017-12-06T06:32:13.759Z,40.97
2017-12-06T06:32:45.780Z,41.46
2017-12-06T06:33:17.818Z,41.46
2017-12-06T06:33:49.933Z,41.17
2017-12-06T06:34:21.922Z,41.09
2017-12-06T06:34:53.949Z,41.46
2017-12-06T06:35:25.964Z,40.78
2017-12-06T06:35:58.083Z,40.78
2017-12-06T06:36:30.113Z,40.88
2017-12-06T07:14:22.532Z,40.78
2017-12-06T07:14:54.573Z,41.07
2017-12-06T07:15:26.727Z,40.88
2017-12-06T07:15:58.731Z,41.27
2017-12-06T07:16:30.737Z,40.69
2017-12-06T07:17:02.708Z,40.78
2017-12-06T07:17:34.706Z,40.78
2017-12-06T07:18:06.736Z,40.9
2017-12-06T07:18:39.756Z,41.17
2017-12-06T07:19:11.746Z,40.88
2017-12-06T07:19:43.815Z,41.07
2017-12-06T07:20:15.820Z,41.17
2017-12-06T07:20:47.834Z,41.07
2017-12-06T07:21:19.837Z,41.07
2017-12-06T07:21:52.078Z,41.17
2017-12-06T07:22:24.924Z,40.97
2017-12-06T07:22:56.926Z,41.07
2017-12-06T07:23:28.924Z,41.07
2017-12-06T07:24:00.936Z,41.07
2017-12-06T07:24:32.967Z,40.97
2017-12-06T07:25:04.939Z,40.97
2017-12-06T07:25:36.984Z,41.07
2017-12-06T07:26:08.994Z,40.97
2017-12-06T07:26:41.078Z,40.97
2017-12-06T07:27:13.231Z,41.36
2017-12-06T07:27:45.259Z,41.07
2017-12-06T07:28:17.256Z,40.97
2017-12-06T07:28:49.265Z,41.46
2017-12-06T07:29:21.257Z,41.46
2017-12-06T07:29:53.233Z,40.97
2017-12-06T07:30:25.250Z,41.07
2017-12-06T07:30:57.240Z,40.9